KCHO Airport Information

Runway Information
Runway 03 Length 6001 ft width 150 ft
Elevation 639 ft Threshold 0 ft Heading 22
Runway 21 Length 6001 ft Width 150 ft
Elevation 620 ft Threshold 0 ft Heading 202
Airport Frequencies
Type A/D Name POTOMAC AP Frequency 132.85 MHZ
Type ASOS Name ASOS Frequency 118.425 MHZ
Type ATIS Name ATIS Frequency 118.425 MHZ
Type CTAF Name CTAF Frequency 124.5 MHZ
Type GND Name GND Frequency 121.9 MHZ
Type RDO Name LEESBURG R Frequency 122.2 MHZ
Type TWR Name TWR Frequency 124.5 MHZ
Type UNIC Name UNICOM Frequency 122.95 MHZ
Airport Navaids
Type NDB Name Azalea Park Frequency 336 KHZ
Airport Weather Information & NOTAM
ADDS - METARS form results

(1209 UTC 22 September 2018)
Data provider http://aviationweather.gov/metar/data/
 
METAR text: KCHO 221153Z 09003KT 4SM BR FEW003 SCT110 23/21 A3010 RMK AO2 SLP186 T02330211 10233 20222 51015
Conditions at: KCHO (CHARLOTTESVILLE , VA, US) observed 1153 UTC 22 September 2018
Temperature: 23.3°C (74°F)
Dewpoint: 21.1°C (70°F) [RH = 87%]
Pressure (altimeter): 30.10 inches Hg (1019.4 mb)
[Sea-level pressure: 1018.6 mb]
Winds: from the E (90 degrees) at 3 MPH (3 knots; 1.5 m/s)
Visibility: 4 miles ( 6 km)
Ceiling: at least 12,000 feet AGL
Clouds: few clouds at 300 feet AGL
scattered clouds at 11000 feet AGL
Weather: BR  (mist)

METAR text: KCHO 221143Z 00000KT 3SM BR SCT100 23/21 A3009 RMK AO2 T02280211
Conditions at: KCHO (CHARLOTTESVILLE , VA, US) observed 1143 UTC 22 September 2018
Temperature: 22.8°C (73°F)
Dewpoint: 21.1°C (70°F) [RH = 90%]
Pressure (altimeter): 30.09 inches Hg (1019.0 mb)
Winds: calm
Visibility: 3 miles ( 5 km)
Ceiling: at least 12,000 feet AGL
Clouds: scattered clouds at 10000 feet AGL
Weather: BR  (mist)

METAR text: KCHO 221128Z 00000KT 2SM BR SCT002 SCT100 BKN110 23/21 A3009 RMK AO2 T02280211
Conditions at: KCHO (CHARLOTTESVILLE , VA, US) observed 1128 UTC 22 September 2018
Temperature: 22.8°C (73°F)
Dewpoint: 21.1°C (70°F) [RH = 90%]
Pressure (altimeter): 30.09 inches Hg (1019.0 mb)
Winds: calm
Visibility: 2.00 miles (3.22 km)
Ceiling: 11000 feet AGL
Clouds: scattered clouds at 200 feet AGL
scattered clouds at 10000 feet AGL
broken clouds at 11000 feet AGL
Weather: BR  (mist)

Forecast for: KCHO (CHARLOTTESVILLE , VA, US)
Text: KCHO 221139Z 2212/2312 01004KT P6SM BKN100
Forecast period: 1200 UTC 22 September 2018 to 0000 UTC 23 September 2018
Forecast type: FROM: standard forecast or significant change
Winds: from the N (10 degrees) at 5 MPH (4 knots; 2.1 m/s)
Visibility: 6 or more miles 10+ km)
Ceiling: 10000 feet AGL
Clouds: broken clouds at 10000 feet AGL
Weather: no significant weather forecast for this period
Text: FM230000 04006KT P6SM OVC045
Forecast period: 0000 to 0200 UTC 23 September 2018
Forecast type: FROM: standard forecast or significant change
Winds: from the NE (40 degrees) at 7 MPH (6 knots; 3.1 m/s)
Visibility: 6 or more miles 10+ km)
Ceiling: 4500 feet AGL
Clouds: overcast cloud deck at 4500 feet AGL
Weather: no significant weather forecast for this period
Text: FM230200 03005KT P6SM OVC045
Forecast period: 0200 to 0400 UTC 23 September 2018
Forecast type: FROM: standard forecast or significant change
Winds: from the NNE (30 degrees) at 6 MPH (5 knots; 2.6 m/s)
Visibility: 6 or more miles 10+ km)
Ceiling: 4500 feet AGL
Clouds: overcast cloud deck at 4500 feet AGL
Weather: no significant weather forecast for this period
Text: FM230400 03005KT P6SM OVC035
Forecast period: 0400 to 0600 UTC 23 September 2018
Forecast type: FROM: standard forecast or significant change
Winds: from the NNE (30 degrees) at 6 MPH (5 knots; 2.6 m/s)
Visibility: 6 or more miles 10+ km)
Ceiling: 3500 feet AGL
Clouds: overcast cloud deck at 3500 feet AGL
Weather: no significant weather forecast for this period
Text: FM230600 03005KT 3SM RA OVC015
Forecast period: 0600 to 1200 UTC 23 September 2018
Forecast type: FROM: standard forecast or significant change
Winds: from the NNE (30 degrees) at 6 MPH (5 knots; 2.6 m/s)
Visibility: 3 miles (5 km)
Ceiling: 1500 feet AGL
Clouds: overcast cloud deck at 1500 feet AGL
Weather: RA  (moderate rain)